Time;durP1;ratioP1;P1;durP2;ratioP2;P2;SDS_P1;SDS_P2;PMS_P1;PMS_P2;Temp;Humidity;BMP_temperature;BMP_pressure;BME280_temperature;BME280_humidity;BME280_pressure;Samples;Min_cycle;Max_cycle;Signal;HPM_P1;HPM_P2
2022/07/08 00:01:29;;;;;;;;;;;;;;;;;;4981575;28;7236;-87
2022/07/08 00:03:54;;;;;;;;;;;;;;;;;;4981028;28;8452;-85
2022/07/08 00:06:20;;;;;;;;;;;;;;;;;;4981931;28;7402;-87
2022/07/08 00:08:46;;;;;;;;;;;;;;;;;;4981220;28;8779;-86
2022/07/08 00:11:11;;;;;;;;;;;;;;;;;;4980878;28;6811;-86
2022/07/08 00:13:38;;;;;;;;;;;;;;;;;;4980816;28;7230;-87
2022/07/08 00:16:03;;;;;;;;;;;;;;;;;;4980897;28;8468;-88
2022/07/08 00:18:29;;;;;;;;;;;;;;;;;;4981177;28;7193;-87
2022/07/08 00:20:54;;;;;;;;;;;;;;;;;;4980739;28;7082;-87
2022/07/08 00:23:20;;;;;;;;;;;;;;;;;;4981181;28;8452;-87
2022/07/08 00:25:45;;;;;;;;;;;;;;;;;;4980814;28;7028;-87
2022/07/08 00:28:11;;;;;;;;;;;;;;;;;;4981262;28;8325;-88
2022/07/08 00:30:37;;;;;;;;;;;;;;;;;;4982842;28;7161;-87
2022/07/08 00:33:02;;;;;;;;;;;;;;;;;;4980773;28;8310;-87
2022/07/08 00:35:28;;;;;;;;;;;;;;;;;;4980735;28;6997;-88
2022/07/08 00:37:54;;;;;;;;;;;;;;;;;;4976794;28;7070;-87
2022/07/08 00:40:20;;;;;;;;;;;;;;;;;;4978251;28;7135;-87
2022/07/08 00:42:48;;;;;;;;;;;;;;;;;;4978465;28;8538;-86
2022/07/08 00:45:18;;;;;;;;;;;;;;;;;;4977779;28;7017;-87
2022/07/08 00:47:43;;;;;;;;;;;;;;;;;;4977824;28;8522;-88
2022/07/08 00:50:09;;;;;;;;;;;;;;;;;;4977780;28;7100;-87
2022/07/08 00:52:37;;;;;;;;;;;;;;;;;;4978047;28;7041;-88
2022/07/08 00:55:03;;;;;;;;;;;;;;;;;;4977849;28;8399;-87
2022/07/08 00:57:28;;;;;;;;;;;;;;;;;;4977444;28;7038;-87
2022/07/08 00:59:55;;;;;;;;;;;;;;;;;;4977158;28;8762;-87
2022/07/08 01:02:20;;;;;;;;;;;;;;;;;;4977571;28;7025;-86
2022/07/08 01:04:46;;;;;;;;;;;;;;;;;;4977411;28;7096;-88
2022/07/08 01:07:12;;;;;;;;;;;;;;;;;;4977069;28;7000;-87
2022/07/08 01:09:38;;;;;;;;;;;;;;;;;;4976942;28;6809;-87
2022/07/08 01:12:04;;;;;;;;;;;;;;;;;;4977512;28;6909;-87
2022/07/08 01:14:29;;;;;;;;;;;;;;;;;;4977043;28;6821;-86
2022/07/08 01:16:55;;;;;;;;;;;;;;;;;;4977345;28;8661;-87
2022/07/08 01:19:20;;;;;;;;;;;;;;;;;;4976908;28;8390;-85
2022/07/08 01:21:46;;;;;;;;;;;;;;;;;;4977105;28;7354;-88
2022/07/08 01:24:12;;;;;;;;;;;;;;;;;;4976990;28;7134;-85
2022/07/08 01:26:37;;;;;;;;;;;;;;;;;;4976837;28;7209;-87
2022/07/08 01:29:03;;;;;;;;;;;;;;;;;;4977404;28;7006;-87
2022/07/08 01:31:28;;;;;;;;;;;;;;;;;;4977141;28;8454;-87
2022/07/08 01:33:53;;;;;;;;;;;;;;;;;;4976750;28;8414;-87
2022/07/08 01:36:19;;;;;;;;;;;;;;;;;;4977017;28;8404;-87
2022/07/08 01:38:44;;;;;;;;;;;;;;;;;;4976649;28;8307;-87
2022/07/08 01:41:10;;;;;;;;;;;;;;;;;;4976670;28;8542;-87
2022/07/08 01:43:35;;;;;;;;;;;;;;;;;;4976405;28;8415;-89
2022/07/08 01:46:01;;;;;;;;;;;;;;;;;;4976374;28;8317;-87
2022/07/08 01:48:26;;;;;;;;;;;;;;;;;;4976494;28;7024;-87
2022/07/08 01:50:52;;;;;;;;;;;;;;;;;;4976269;28;7257;-87
2022/07/08 01:53:17;;;;;;;;;;;;;;;;;;4975718;28;8405;-87
2022/07/08 01:55:43;;;;;;;;;;;;;;;;;;4976290;28;8268;-87
2022/07/08 01:58:08;;;;;;;;;;;;;;;;;;4976610;28;7008;-87
2022/07/08 02:00:34;;;;;;;;;;;;;;;;;;4976736;28;7782;-87
2022/07/08 02:02:59;;;;;;;;;;;;;;;;;;4976428;28;8244;-87
2022/07/08 02:05:26;;;;;;;;;;;;;;;;;;4976222;28;7008;-87
2022/07/08 02:07:52;;;;;;;;;;;;;;;;;;4975959;28;7136;-87
2022/07/08 02:10:18;;;;;;;;;;;;;;;;;;4976178;28;8398;-87
2022/07/08 02:12:43;;;;;;;;;;;;;;;;;;4976726;28;7059;-86
2022/07/08 02:15:09;;;;;;;;;;;;;;;;;;4976665;28;8270;-87
2022/07/08 02:17:37;;;;;;;;;;;;;;;;;;4976163;28;8428;-87
2022/07/08 02:20:05;;;;;;;;;;;;;;;;;;4976097;28;7072;-86
2022/07/08 02:22:31;;;;;;;;;;;;;;;;;;4975730;28;7320;-87
2022/07/08 02:24:57;;;;;;;;;;;;;;;;;;4975730;28;7031;-87
2022/07/08 02:27:22;;;;;;;;;;;;;;;;;;4976369;28;8302;-86
2022/07/08 02:29:48;;;;;;;;;;;;;;;;;;4975571;28;7677;-87
2022/07/08 02:32:13;;;;;;;;;;;;;;;;;;4975711;28;7070;-87
2022/07/08 02:34:39;;;;;;;;;;;;;;;;;;4975571;28;7010;-87
2022/07/08 02:37:04;;;;;;;;;;;;;;;;;;4975726;28;8391;-87
2022/07/08 02:39:30;;;;;;;;;;;;;;;;;;4976041;28;8358;-88
2022/07/08 02:41:55;;;;;;;;;;;;;;;;;;4975557;28;8293;-88
2022/07/08 02:44:21;;;;;;;;;;;;;;;;;;4975330;28;8265;-83
2022/07/08 02:46:47;;;;;;;;;;;;;;;;;;4975653;28;8411;-84
2022/07/08 02:49:13;;;;;;;;;;;;;;;;;;4975427;28;8385;-84
2022/07/08 02:51:39;;;;;;;;;;;;;;;;;;4974993;28;8556;-83
2022/07/08 02:54:05;;;;;;;;;;;;;;;;;;4974905;28;7009;-82
2022/07/08 02:56:31;;;;;;;;;;;;;;;;;;4975212;28;7215;-82
2022/07/08 02:58:57;;;;;;;;;;;;;;;;;;4974830;28;8996;-83
2022/07/08 03:01:22;;;;;;;;;;;;;;;;;;4974767;28;7133;-86
2022/07/08 03:03:48;;;;;;;;;;;;;;;;;;4975476;28;8633;-85
2022/07/08 03:06:14;;;;;;;;;;;;;;;;;;4975088;28;7294;-85
2022/07/08 03:08:39;;;;;;;;;;;;;;;;;;4975307;28;7387;-86
2022/07/08 03:11:06;;;;;;;;;;;;;;;;;;4974926;28;7173;-85
2022/07/08 03:13:31;;;;;;;;;;;;;;;;;;4974954;28;7042;-85
2022/07/08 03:15:58;;;;;;;;;;;;;;;;;;4975395;28;6992;-86
2022/07/08 03:18:24;;;;;;;;;;;;;;;;;;4975225;28;7088;-86
2022/07/08 03:20:50;;;;;;;;;;;;;;;;;;4975261;28;7069;-86
2022/07/08 03:23:16;;;;;;;;;;;;;;;;;;4974755;28;7014;-86
2022/07/08 03:25:42;;;;;;;;;;;;;;;;;;4975007;28;8921;-86
2022/07/08 03:28:08;;;;;;;;;;;;;;;;;;4974910;28;8417;-86
2022/07/08 03:30:33;;;;;;;;;;;;;;;;;;4974945;28;8636;-85
2022/07/08 03:32:59;;;;;;;;;;;;;;;;;;4974837;28;8598;-86
2022/07/08 03:35:25;;;;;;;;;;;;;;;;;;4974062;28;8589;-86
2022/07/08 03:37:50;;;;;;;;;;;;;;;;;;4974650;28;8298;-85
2022/07/08 03:43:00;;;;;;;;;;;;;;;;;;4973737;28;6822;-83
2022/07/08 03:45:26;;;;;;;;;;;;;;;;;;4960987;28;6861;-86
2022/07/08 03:47:52;;;;;;;;;;;;;;;;;;4939260;29;7020;-86
2022/07/08 03:50:17;;;;;;;;;;;;;;;;;;4955241;29;7115;-87
2022/07/08 03:52:46;;;;;;;;;;;;;;;;;;4955511;29;8299;-87
2022/07/08 03:55:12;;;;;;;;;;;;;;;;;;4955518;29;7072;-87
2022/07/08 03:57:38;;;;;;;;;;;;;;;;;;4955363;29;8413;-85
2022/07/08 04:00:04;;;;;;;;;;;;;;;;;;4939516;29;7033;-86
2022/07/08 04:02:30;;;;;;;;;;;;;;;;;;4955628;29;7370;-87
2022/07/08 04:04:56;;;;;;;;;;;;;;;;;;4938768;29;7040;-87
2022/07/08 04:07:21;;;;;;;;;;;;;;;;;;4940163;29;6819;-87
2022/07/08 04:09:47;;;;;;;;;;;;;;;;;;4939429;29;7280;-86
2022/07/08 04:12:12;;;;;;;;;;;;;;;;;;4940978;28;8292;-86
2022/07/08 04:14:38;;;;;;;;;;;;;;;;;;4958693;28;7020;-87
2022/07/08 04:17:03;;;;;;;;;;;;;;;;;;4958705;28;7051;-86
2022/07/08 04:19:29;;;;;;;;;;;;;;;;;;4942953;28;8739;-87
2022/07/08 04:21:55;;;;;;;;;;;;;;;;;;4942794;28;7118;-88
2022/07/08 04:24:21;;;;;;;;;;;;;;;;;;4958481;28;6999;-87
2022/07/08 04:26:46;;;;;;;;;;;;;;;;;;4942455;28;7372;-87
2022/07/08 04:29:12;;;;;;;;;;;;;;;;;;4942196;28;8399;-87
2022/07/08 04:31:37;;;;;;;;;;;;;;;;;;4942294;28;8421;-88
2022/07/08 04:34:02;;;;;;;;;;;;;;;;;;4941973;28;8631;-85
2022/07/08 04:36:28;;;;;;;;;;;;;;;;;;4942176;28;7070;-87
2022/07/08 04:38:53;;;;;;;;;;;;;;;;;;4942138;28;7139;-87
2022/07/08 04:41:19;;;;;;;;;;;;;;;;;;4942062;28;8393;-86
2022/07/08 04:43:45;;;;;;;;;;;;;;;;;;4958070;28;8371;-87
2022/07/08 04:46:11;;;;;;;;;;;;;;;;;;4959099;28;7141;-86
2022/07/08 04:48:37;;;;;;;;;;;;;;;;;;4960356;28;7416;-87
2022/07/08 04:51:03;;;;;;;;;;;;;;;;;;4958169;28;7102;-87
2022/07/08 04:53:29;;;;;;;;;;;;;;;;;;4957214;28;7081;-86
2022/07/08 04:55:54;;;;;;;;;;;;;;;;;;4958013;28;7225;-88
2022/07/08 04:58:20;;;;;;;;;;;;;;;;;;4956066;28;8519;-87
2022/07/08 05:00:45;;;;;;;;;;;;;;;;;;4957629;28;8790;-87
2022/07/08 05:03:11;;;;;;;;;;;;;;;;;;4957178;28;7036;-86
2022/07/08 05:05:37;;;;;;;;;;;;;;;;;;4957839;28;8745;-86
2022/07/08 05:08:03;;;;;;;;;;;;;;;;;;4957447;28;7138;-86
2022/07/08 05:10:29;;;;;;;;;;;;;;;;;;4954583;28;8473;-86
2022/07/08 05:12:56;;;;;;;;;;;;;;;;;;4957640;28;7111;-87
2022/07/08 05:15:22;;;;;;;;;;;;;;;;;;4955773;28;8359;-87
2022/07/08 05:17:48;;;;;;;;;;;;;;;;;;4957236;28;7116;-87
2022/07/08 05:20:15;;;;;;;;;;;;;;;;;;4957147;28;7118;-87
2022/07/08 05:22:40;;;;;;;;;;;;;;;;;;4957522;28;7454;-87
2022/07/08 05:25:08;;;;;;;;;;;;;;;;;;4957612;28;7868;-87
2022/07/08 05:27:34;;;;;;;;;;;;;;;;;;4957609;28;7033;-87
2022/07/08 05:30:01;;;;;;;;;;;;;;;;;;4957345;28;8312;-86
2022/07/08 05:32:27;;;;;;;;;;;;;;;;;;4958285;28;7236;-86
2022/07/08 05:34:53;;;;;;;;;;;;;;;;;;4957658;28;8300;-86
2022/07/08 05:37:19;;;;;;;;;;;;;;;;;;4957648;28;7262;-87
2022/07/08 05:39:44;;;;;;;;;;;;;;;;;;4954454;28;8415;-82
2022/07/08 05:42:11;;;;;;;;;;;;;;;;;;4956027;28;8299;-87
2022/07/08 05:44:37;;;;;;;;;;;;;;;;;;4958238;28;7067;-82
2022/07/08 05:47:10;;;;;;;;;;;;;;;;;;4988035;28;8380;-82
2022/07/08 05:49:37;;;;;;;;;;;;;;;;;;4993877;28;7042;-85
2022/07/08 05:52:08;;;;;;;;;;;;;;;;;;4995662;28;7238;-85
2022/07/08 05:54:33;;;;;;;;;;;;;;;;;;4987015;28;6841;-82
2022/07/08 05:57:00;;;;;;;;;;;;;;;;;;4991321;28;6892;-89
2022/07/08 05:59:26;;;;;;;;;;;;;;;;;;4991261;28;7041;-82
2022/07/08 06:01:51;;;;;;;;;;;;;;;;;;4984570;28;8429;-84
2022/07/08 06:04:17;;;;;;;;;;;;;;;;;;4985331;28;8286;-86
2022/07/08 06:06:43;;;;;;;;;;;;;;;;;;4978478;28;8257;-87
2022/07/08 06:09:08;;;;;;;;;;;;;;;;;;4954935;28;7878;-85
2022/07/08 06:11:34;;;;;;;;;;;;;;;;;;4957001;28;8676;-88
2022/07/08 06:13:59;;;;;;;;;;;;;;;;;;4973370;28;7197;-82
2022/07/08 06:16:25;;;;;;;;;;;;;;;;;;4973616;28;6870;-82
2022/07/08 06:18:50;;;;;;;;;;;;;;;;;;4973497;28;8288;-84
2022/07/08 06:21:16;;;;;;;;;;;;;;;;;;4972175;28;7023;-80
2022/07/08 06:23:41;;;;;;;;;;;;;;;;;;4978874;28;8416;-85
2022/07/08 06:26:07;;;;;;;;;;;;;;;;;;4969768;28;7212;-80
2022/07/08 06:28:33;;;;;;;;;;;;;;;;;;4979873;28;8308;-84
2022/07/08 06:30:58;;;;;;;;;;;;;;;;;;4979752;28;7169;-86
2022/07/08 06:33:24;;;;;;;;;;;;;;;;;;4973962;28;8409;-81
2022/07/08 06:35:49;;;;;;;;;;;;;;;;;;4979955;28;6979;-84
2022/07/08 06:38:15;;;;;;;;;;;;;;;;;;4981632;28;7021;-83
2022/07/08 06:40:40;;;;;;;;;;;;;;;;;;4981980;28;8497;-82
2022/07/08 06:43:06;;;;;;;;;;;;;;;;;;4961070;28;8813;-83
2022/07/08 06:45:32;;;;;;;;;;;;;;;;;;4956420;28;8691;-80
2022/07/08 06:47:58;;;;;;;;;;;;;;;;;;4966126;28;7104;-80
2022/07/08 06:50:24;;;;;;;;;;;;;;;;;;4965630;28;7306;-80
2022/07/08 06:52:49;;;;;;;;;;;;;;;;;;4965528;28;8284;-79
2022/07/08 06:55:15;;;;;;;;;;;;;;;;;;4964145;28;7100;-79
2022/07/08 06:57:41;;;;;;;;;;;;;;;;;;4963918;28;8785;-84
2022/07/08 07:00:07;;;;;;;;;;;;;;;;;;4962530;28;8702;-81
2022/07/08 07:02:32;;;;;;;;;;;;;;;;;;4957939;28;8454;-81
2022/07/08 07:04:58;;;;;;;;;;;;;;;;;;4961873;28;8666;-80
2022/07/08 07:07:23;;;;;;;;;;;;;;;;;;4957132;28;7066;-79
2022/07/08 07:09:49;;;;;;;;;;;;;;;;;;4956391;28;8481;-85
2022/07/08 07:12:17;;;;;;;;;;;;;;;;;;4954709;28;8467;-81
2022/07/08 07:14:43;;;;;;;;;;;;;;;;;;4958905;28;8308;-81
2022/07/08 07:17:08;;;;;;;;;;;;;;;;;;4962776;28;6825;-79
2022/07/08 07:19:34;;;;;;;;;;;;;;;;;;4960956;28;8422;-79
2022/07/08 07:21:59;;;;;;;;;;;;;;;;;;4956089;28;7092;-80
2022/07/08 07:24:24;;;;;;;;;;;;;;;;;;4960527;28;7139;-79
2022/07/08 07:26:50;;;;;;;;;;;;;;;;;;4966366;29;8382;-79
2022/07/08 07:29:15;;;;;;;;;;;;;;;;;;4965598;29;8376;-84
2022/07/08 07:31:41;;;;;;;;;;;;;;;;;;4961209;29;7059;-81
2022/07/08 07:34:07;;;;;;;;;;;;;;;;;;4963297;29;6993;-81
2022/07/08 07:36:33;;;;;;;;;;;;;;;;;;4964304;29;7046;-81
2022/07/08 07:38:58;;;;;;;;;;;;;;;;;;4964723;29;8693;-79
2022/07/08 07:41:24;;;;;;;;;;;;;;;;;;4964959;29;8395;-80
2022/07/08 07:43:49;;;;;;;;;;;;;;;;;;4948823;29;8733;-80
2022/07/08 07:46:15;;;;;;;;;;;;;;;;;;4963146;28;8463;-81
2022/07/08 07:48:41;;;;;;;;;;;;;;;;;;4952783;28;8299;-83
2022/07/08 07:51:06;;;;;;;;;;;;;;;;;;4953074;28;8425;-80
2022/07/08 07:53:33;;;;;;;;;;;;;;;;;;4951487;28;8386;-82
2022/07/08 07:55:58;;;;;;;;;;;;;;;;;;4968194;28;8316;-86
2022/07/08 07:58:25;;;;;;;;;;;;;;;;;;4969588;28;8287;-82
2022/07/08 08:00:51;;;;;;;;;;;;;;;;;;4966872;28;7253;-81
2022/07/08 08:03:16;;;;;;;;;;;;;;;;;;4966420;28;8360;-81
2022/07/08 08:05:42;;;;;;;;;;;;;;;;;;4959884;28;8470;-81
2022/07/08 08:08:09;;;;;;;;;;;;;;;;;;4960181;28;7443;-82
2022/07/08 08:10:34;;;;;;;;;;;;;;;;;;4968341;28;7122;-83
2022/07/08 08:13:00;;;;;;;;;;;;;;;;;;4969951;28;8535;-81
2022/07/08 08:15:29;;;;;;;;;;;;;;;;;;4964162;28;7012;-82
2022/07/08 08:17:55;;;;;;;;;;;;;;;;;;4952624;28;8715;-82
2022/07/08 08:20:23;;;;;;;;;;;;;;;;;;4966237;28;8753;-82
2022/07/08 08:22:49;;;;;;;;;;;;;;;;;;4963377;28;8521;-82
2022/07/08 08:25:15;;;;;;;;;;;;;;;;;;4967310;28;7003;-84
2022/07/08 08:27:43;;;;;;;;;;;;;;;;;;4971922;28;8496;-81
2022/07/08 08:30:10;;;;;;;;;;;;;;;;;;4970589;28;6903;-81
2022/07/08 08:32:35;;;;;;;;;;;;;;;;;;4965737;28;8002;-82
2022/07/08 08:35:01;;;;;;;;;;;;;;;;;;4961272;28;6865;-85
2022/07/08 08:37:27;;;;;;;;;;;;;;;;;;4957318;28;8374;-86
2022/07/08 08:39:53;;;;;;;;;;;;;;;;;;4957576;28;8449;-84
2022/07/08 08:42:20;;;;;;;;;;;;;;;;;;4958045;28;7065;-86
2022/07/08 08:44:49;;;;;;;;;;;;;;;;;;4961760;28;7040;-85
2022/07/08 08:47:16;;;;;;;;;;;;;;;;;;4977774;28;6839;-86
2022/07/08 08:49:42;;;;;;;;;;;;;;;;;;4977380;28;8309;-84
2022/07/08 08:52:09;;;;;;;;;;;;;;;;;;4977003;28;6828;-84
2022/07/08 08:54:36;;;;;;;;;;;;;;;;;;4976297;28;8801;-85
2022/07/08 08:57:02;;;;;;;;;;;;;;;;;;4975490;28;7238;-85
2022/07/08 08:59:28;;;;;;;;;;;;;;;;;;4975263;28;7448;-82
2022/07/08 09:01:55;;;;;;;;;;;;;;;;;;4974909;28;8386;-82
2022/07/08 09:04:21;;;;;;;;;;;;;;;;;;4956617;28;7189;-83
2022/07/08 09:06:47;;;;;;;;;;;;;;;;;;4959237;28;8420;-83
2022/07/08 09:09:12;;;;;;;;;;;;;;;;;;4960323;28;8472;-85
2022/07/08 09:11:39;;;;;;;;;;;;;;;;;;4975744;28;7151;-84
2022/07/08 09:14:21;;;;;;;;;;;;;;;;;;4975711;28;7232;-83
2022/07/08 09:17:05;;;;;;;;;;;;;;;;;;4976473;28;7445;-85
2022/07/08 09:19:30;;;;;;;;;;;;;;;;;;4975765;28;7347;-83
2022/07/08 09:21:56;;;;;;;;;;;;;;;;;;4973572;28;6979;-85
2022/07/08 09:24:21;;;;;;;;;;;;;;;;;;4959593;28;7204;-85
2022/07/08 09:26:47;;;;;;;;;;;;;;;;;;4975250;28;7029;-85
2022/07/08 09:29:12;;;;;;;;;;;;;;;;;;4974967;28;8666;-84
2022/07/08 09:31:38;;;;;;;;;;;;;;;;;;4975449;28;7173;-76
2022/07/08 09:34:16;;;;;;;;;;;;;;;;;;4970404;28;7434;-84
2022/07/08 09:36:45;;;;;;;;;;;;;;;;;;4985107;28;8328;-84
2022/07/08 09:39:27;;;;;;;;;;;;;;;;;;4995521;28;8651;-82
2022/07/08 09:41:53;;;;;;;;;;;;;;;;;;4994717;28;8467;-82
2022/07/08 09:44:22;;;;;;;;;;;;;;;;;;4974981;28;7043;-83
2022/07/08 09:46:49;;;;;;;;;;;;;;;;;;4959865;28;7163;-83
2022/07/08 09:49:28;;;;;;;;;;;;;;;;;;4959136;28;8758;-85
2022/07/08 09:51:54;;;;;;;;;;;;;;;;;;4957878;28;8441;-79
2022/07/08 09:54:21;;;;;;;;;;;;;;;;;;4959427;28;8445;-85
2022/07/08 09:56:56;;;;;;;;;;;;;;;;;;4958315;28;8837;-79
2022/07/08 09:59:22;;;;;;;;;;;;;;;;;;4967737;28;7141;-89
2022/07/08 10:01:47;;;;;;;;;;;;;;;;;;4960169;28;8699;-86
2022/07/08 10:04:14;;;;;;;;;;;;;;;;;;4960652;28;8896;-86
2022/07/08 10:06:40;;;;;;;;;;;;;;;;;;4958928;28;8608;-88
2022/07/08 10:09:06;;;;;;;;;;;;;;;;;;4957828;28;7016;-87
2022/07/08 10:11:32;;;;;;;;;;;;;;;;;;4974578;28;7185;-87
2022/07/08 10:14:00;;;;;;;;;;;;;;;;;;4974112;28;8408;-84
2022/07/08 10:16:26;;;;;;;;;;;;;;;;;;4958295;28;9028;-86
2022/07/08 10:18:54;;;;;;;;;;;;;;;;;;4960213;28;8328;-86
2022/07/08 10:21:23;;;;;;;;;;;;;;;;;;4959229;28;8508;-86
2022/07/08 10:23:50;;;;;;;;;;;;;;;;;;4958099;28;8752;-85
2022/07/08 10:26:20;;;;;;;;;;;;;;;;;;4957670;28;8418;-88
2022/07/08 10:28:59;;;;;;;;;;;;;;;;;;4979063;28;8611;-84
2022/07/08 10:31:37;;;;;;;;;;;;;;;;;;4982804;28;7007;-86
2022/07/08 10:34:06;;;;;;;;;;;;;;;;;;4978518;28;7296;-88
2022/07/08 10:36:45;;;;;;;;;;;;;;;;;;4961305;28;7164;-82
2022/07/08 10:39:12;;;;;;;;;;;;;;;;;;4978029;28;7069;-85
2022/07/08 10:41:56;;;;;;;;;;;;;;;;;;4980501;28;7182;-86
2022/07/08 10:44:41;;;;;;;;;;;;;;;;;;4979177;28;6824;-90
2022/07/08 10:47:23;;;;;;;;;;;;;;;;;;4978869;28;6823;-87
2022/07/08 10:49:50;;;;;;;;;;;;;;;;;;4972168;28;8761;-85
2022/07/08 10:52:19;;;;;;;;;;;;;;;;;;4977306;28;7199;-87
2022/07/08 10:54:44;;;;;;;;;;;;;;;;;;4973704;28;7175;-84
2022/07/08 10:57:16;;;;;;;;;;;;;;;;;;4974702;28;7398;-89
2022/07/08 11:00:00;;;;;;;;;;;;;;;;;;4958033;28;8306;-85
2022/07/08 11:02:26;;;;;;;;;;;;;;;;;;4976564;28;6812;-84
2022/07/08 11:04:53;;;;;;;;;;;;;;;;;;4974235;28;6827;-88
2022/07/08 11:07:29;;;;;;;;;;;;;;;;;;4974277;28;8423;-87
2022/07/08 11:09:57;;;;;;;;;;;;;;;;;;4957840;28;7760;-87
2022/07/08 11:12:28;;;;;;;;;;;;;;;;;;4957830;28;7054;-87
2022/07/08 11:14:56;;;;;;;;;;;;;;;;;;4974204;28;8326;-87
2022/07/08 11:17:26;;;;;;;;;;;;;;;;;;4974261;28;8842;-87
2022/07/08 11:19:53;;;;;;;;;;;;;;;;;;4974260;28;8433;-84
2022/07/08 11:22:22;;;;;;;;;;;;;;;;;;4973622;28;8694;-89
2022/07/08 11:24:48;;;;;;;;;;;;;;;;;;4974856;28;7173;-85
2022/07/08 11:27:15;;;;;;;;;;;;;;;;;;4974764;28;8373;-84
2022/07/08 11:29:48;;;;;;;;;;;;;;;;;;4974345;28;8505;-83
2022/07/08 11:32:14;;;;;;;;;;;;;;;;;;4971230;28;8727;-86
2022/07/08 11:34:39;;;;;;;;;;;;;;;;;;4970327;28;8374;-85
2022/07/08 11:37:05;;;;;;;;;;;;;;;;;;4974366;28;7165;-88
2022/07/08 11:39:30;;;;;;;;;;;;;;;;;;4972258;28;8407;-86
2022/07/08 11:41:56;;;;;;;;;;;;;;;;;;4965250;28;7178;-86
2022/07/08 11:44:22;;;;;;;;;;;;;;;;;;4958547;28;8751;-86
2022/07/08 11:46:49;;;;;;;;;;;;;;;;;;4973531;28;8547;-85
2022/07/08 11:49:15;;;;;;;;;;;;;;;;;;4973197;28;7055;-85
2022/07/08 11:51:45;;;;;;;;;;;;;;;;;;4972866;28;8433;-87
2022/07/08 11:54:11;;;;;;;;;;;;;;;;;;4973964;28;8448;-87
2022/07/08 11:56:36;;;;;;;;;;;;;;;;;;4973048;28;8673;-83
2022/07/08 11:59:02;;;;;;;;;;;;;;;;;;4972623;28;8386;-85
2022/07/08 12:01:27;;;;;;;;;;;;;;;;;;4954108;28;7239;-87
2022/07/08 12:03:53;;;;;;;;;;;;;;;;;;4918987;29;8407;-87
2022/07/08 12:06:22;;;;;;;;;;;;;;;;;;4917678;29;8399;-86
2022/07/08 12:08:47;;;;;;;;;;;;;;;;;;4949795;28;8463;-86
2022/07/08 12:11:14;;;;;;;;;;;;;;;;;;4955615;28;8443;-86
2022/07/08 12:13:41;;;;;;;;;;;;;;;;;;4971723;28;8509;-85
2022/07/08 12:16:07;;;;;;;;;;;;;;;;;;4972233;28;7159;-86
2022/07/08 12:18:34;;;;;;;;;;;;;;;;;;4956676;28;8418;-85
2022/07/08 12:21:15;;;;;;;;;;;;;;;;;;4918138;29;8395;-87
2022/07/08 12:23:45;;;;;;;;;;;;;;;;;;4963524;28;8301;-85
2022/07/08 12:26:10;;;;;;;;;;;;;;;;;;4973352;28;8625;-87
2022/07/08 12:28:36;;;;;;;;;;;;;;;;;;4973427;28;6850;-82
2022/07/08 12:31:01;;;;;;;;;;;;;;;;;;4973715;28;8295;-86
2022/07/08 12:33:32;;;;;;;;;;;;;;;;;;4975443;28;8971;-83
2022/07/08 12:35:58;;;;;;;;;;;;;;;;;;4976156;28;7008;-82
2022/07/08 12:38:25;;;;;;;;;;;;;;;;;;4976055;28;8431;-84
2022/07/08 12:40:51;;;;;;;;;;;;;;;;;;4976406;28;8314;-85
2022/07/08 12:43:17;;;;;;;;;;;;;;;;;;4976108;28;8519;-85
2022/07/08 12:45:42;;;;;;;;;;;;;;;;;;4976266;28;7016;-84
2022/07/08 12:48:08;;;;;;;;;;;;;;;;;;4976375;28;8097;-86
2022/07/08 12:50:34;;;;;;;;;;;;;;;;;;4975775;28;7246;-84
2022/07/08 12:53:00;;;;;;;;;;;;;;;;;;4976518;28;8451;-84
2022/07/08 12:55:26;;;;;;;;;;;;;;;;;;4954926;28;8828;-83
2022/07/08 12:57:52;;;;;;;;;;;;;;;;;;4955811;28;8653;-83
2022/07/08 13:00:18;;;;;;;;;;;;;;;;;;4960329;28;6865;-81
2022/07/08 13:02:43;;;;;;;;;;;;;;;;;;4957366;28;6821;-81
2022/07/08 13:05:09;;;;;;;;;;;;;;;;;;4957553;28;8707;-85
2022/07/08 13:07:34;;;;;;;;;;;;;;;;;;4940606;28;8313;-82
2022/07/08 13:10:00;;;;;;;;;;;;;;;;;;4940071;28;8642;-85
2022/07/08 13:12:25;;;;;;;;;;;;;;;;;;4955931;28;8345;-84
2022/07/08 13:14:51;;;;;;;;;;;;;;;;;;4939707;28;8669;-82
2022/07/08 13:17:17;;;;;;;;;;;;;;;;;;4953050;28;6983;-85
2022/07/08 13:19:43;;;;;;;;;;;;;;;;;;4955967;28;7049;-85
2022/07/08 13:22:08;;;;;;;;;;;;;;;;;;4956705;28;8544;-83
2022/07/08 13:24:34;;;;;;;;;;;;;;;;;;4952321;28;9126;-85
2022/07/08 13:27:00;;;;;;;;;;;;;;;;;;4953191;28;7014;-84
2022/07/08 13:29:26;;;;;;;;;;;;;;;;;;4952916;28;7149;-86
2022/07/08 13:31:52;;;;;;;;;;;;;;;;;;4952950;28;7028;-84
2022/07/08 13:34:20;;;;;;;;;;;;;;;;;;4956802;28;7239;-84
2022/07/08 13:36:46;;;;;;;;;;;;;;;;;;4944156;28;8361;-84
2022/07/08 13:39:11;;;;;;;;;;;;;;;;;;4928802;28;8615;-79
2022/07/08 13:41:37;;;;;;;;;;;;;;;;;;4954985;28;8437;-80
2022/07/08 13:44:02;;;;;;;;;;;;;;;;;;4954345;28;7049;-80
2022/07/08 13:46:28;;;;;;;;;;;;;;;;;;4972132;28;7163;-83
2022/07/08 13:48:54;;;;;;;;;;;;;;;;;;4973387;28;9002;-83
2022/07/08 13:51:20;;;;;;;;;;;;;;;;;;4975094;28;8776;-83
2022/07/08 13:53:45;;;;;;;;;;;;;;;;;;4974551;28;8489;-83
2022/07/08 13:56:11;;;;;;;;;;;;;;;;;;4973757;28;8436;-83
2022/07/08 13:58:37;;;;;;;;;;;;;;;;;;4958096;28;8730;-83
2022/07/08 14:01:03;;;;;;;;;;;;;;;;;;4973941;28;8906;-84
2022/07/08 14:03:29;;;;;;;;;;;;;;;;;;4957483;28;7109;-84
2022/07/08 14:05:55;;;;;;;;;;;;;;;;;;4958075;28;8767;-83
2022/07/08 14:08:21;;;;;;;;;;;;;;;;;;4959419;28;8541;-84
2022/07/08 14:10:47;;;;;;;;;;;;;;;;;;4959779;28;7122;-84
2022/07/08 14:13:13;;;;;;;;;;;;;;;;;;4972598;28;7328;-81
2022/07/08 14:15:38;;;;;;;;;;;;;;;;;;4974810;28;8758;-84
2022/07/08 14:18:04;;;;;;;;;;;;;;;;;;4974405;28;8445;-85
2022/07/08 14:20:29;;;;;;;;;;;;;;;;;;4975140;28;7087;-84
2022/07/08 14:22:56;;;;;;;;;;;;;;;;;;4975157;28;8470;-84
2022/07/08 14:25:22;;;;;;;;;;;;;;;;;;4975680;28;8859;-84
2022/07/08 14:27:49;;;;;;;;;;;;;;;;;;4971467;28;7412;-83
2022/07/08 14:30:14;;;;;;;;;;;;;;;;;;4946793;28;7463;-84
2022/07/08 14:32:40;;;;;;;;;;;;;;;;;;4971687;28;8631;-84
2022/07/08 14:35:05;;;;;;;;;;;;;;;;;;4971894;28;9566;-84
2022/07/08 14:37:31;;;;;;;;;;;;;;;;;;4939818;28;9572;-85
2022/07/08 14:39:57;;;;;;;;;;;;;;;;;;4972076;28;8396;-84
2022/07/08 14:42:22;;;;;;;;;;;;;;;;;;4940250;28;8769;-86
2022/07/08 14:44:47;;;;;;;;;;;;;;;;;;4971724;28;8405;-85
2022/07/08 14:47:16;;;;;;;;;;;;;;;;;;4971924;28;8389;-83
2022/07/08 14:49:44;;;;;;;;;;;;;;;;;;4970509;28;8400;-81
2022/07/08 14:52:11;;;;;;;;;;;;;;;;;;4971452;28;8458;-84
2022/07/08 14:54:37;;;;;;;;;;;;;;;;;;4971143;28;9181;-84
2022/07/08 14:57:02;;;;;;;;;;;;;;;;;;4971082;28;8479;-84
2022/07/08 14:59:28;;;;;;;;;;;;;;;;;;4939325;28;7173;-85
2022/07/08 15:01:53;;;;;;;;;;;;;;;;;;4971291;28;8570;-85
2022/07/08 15:04:19;;;;;;;;;;;;;;;;;;4970997;28;8437;-86
2022/07/08 15:06:45;;;;;;;;;;;;;;;;;;4971298;28;9110;-86
2022/07/08 15:09:10;;;;;;;;;;;;;;;;;;4939387;28;8467;-84
2022/07/08 15:11:36;;;;;;;;;;;;;;;;;;4971341;28;8428;-84
2022/07/08 15:14:02;;;;;;;;;;;;;;;;;;4939485;28;8728;-85
2022/07/08 15:16:27;;;;;;;;;;;;;;;;;;4971286;28;7105;-84
2022/07/08 15:18:53;;;;;;;;;;;;;;;;;;4971085;28;8368;-84
2022/07/08 15:21:19;;;;;;;;;;;;;;;;;;4939500;28;8811;-85
2022/07/08 15:23:45;;;;;;;;;;;;;;;;;;4939242;28;8965;-85
2022/07/08 15:26:10;;;;;;;;;;;;;;;;;;4938914;29;8375;-84
2022/07/08 15:28:37;;;;;;;;;;;;;;;;;;4958964;28;8413;-85
2022/07/08 15:31:03;;;;;;;;;;;;;;;;;;4937149;29;8714;-85
2022/07/08 15:33:28;;;;;;;;;;;;;;;;;;4952943;29;9735;-85
2022/07/08 15:35:55;;;;;;;;;;;;;;;;;;4952866;29;7374;-80
2022/07/08 15:38:21;;;;;;;;;;;;;;;;;;4952453;29;8997;-79
2022/07/08 15:40:47;;;;;;;;;;;;;;;;;;4957951;28;8490;-84
2022/07/08 15:43:12;;;;;;;;;;;;;;;;;;4972187;28;7191;-83
2022/07/08 15:45:39;;;;;;;;;;;;;;;;;;4983109;28;8731;-84
2022/07/08 15:48:09;;;;;;;;;;;;;;;;;;4975016;28;8525;-84
2022/07/08 15:50:35;;;;;;;;;;;;;;;;;;4975351;28;8621;-85
2022/07/08 15:53:00;;;;;;;;;;;;;;;;;;4974221;28;9486;-80
2022/07/08 15:55:26;;;;;;;;;;;;;;;;;;4975831;28;8525;-84
2022/07/08 15:57:51;;;;;;;;;;;;;;;;;;4975124;28;8547;-84
2022/07/08 16:00:17;;;;;;;;;;;;;;;;;;4975757;28;8811;-86
2022/07/08 16:02:42;;;;;;;;;;;;;;;;;;4975647;28;8565;-84
2022/07/08 16:05:07;;;;;;;;;;;;;;;;;;4975115;28;8890;-85
2022/07/08 16:07:33;;;;;;;;;;;;;;;;;;4977990;28;8480;-84
2022/07/08 16:09:59;;;;;;;;;;;;;;;;;;4957540;28;8424;-80
2022/07/08 16:12:24;;;;;;;;;;;;;;;;;;4971422;28;8569;-81
2022/07/08 16:14:50;;;;;;;;;;;;;;;;;;4947653;28;9042;-81
2022/07/08 16:17:16;;;;;;;;;;;;;;;;;;4970661;28;8567;-85
2022/07/08 16:19:43;;;;;;;;;;;;;;;;;;4971926;28;8923;-84
2022/07/08 16:22:09;;;;;;;;;;;;;;;;;;4976023;28;7314;-86
2022/07/08 16:24:34;;;;;;;;;;;;;;;;;;4975957;28;8683;-85
2022/07/08 16:27:00;;;;;;;;;;;;;;;;;;4955917;28;8569;-86
2022/07/08 16:29:26;;;;;;;;;;;;;;;;;;4973069;28;8461;-85
2022/07/08 16:31:52;;;;;;;;;;;;;;;;;;4973087;28;7428;-84
2022/07/08 16:34:18;;;;;;;;;;;;;;;;;;4959920;28;8475;-83
2022/07/08 16:36:43;;;;;;;;;;;;;;;;;;4957827;28;8563;-85
2022/07/08 16:39:08;;;;;;;;;;;;;;;;;;4955937;28;8767;-86
2022/07/08 16:41:34;;;;;;;;;;;;;;;;;;4972534;28;8478;-86
2022/07/08 16:44:01;;;;;;;;;;;;;;;;;;4957482;28;8534;-87
2022/07/08 16:46:28;;;;;;;;;;;;;;;;;;4957351;28;8860;-87
2022/07/08 16:48:54;;;;;;;;;;;;;;;;;;4975006;28;8458;-84
2022/07/08 16:51:20;;;;;;;;;;;;;;;;;;4974883;28;8711;-87
2022/07/08 16:53:45;;;;;;;;;;;;;;;;;;4957372;28;8454;-86
2022/07/08 16:56:11;;;;;;;;;;;;;;;;;;4975046;28;7199;-86
2022/07/08 16:58:36;;;;;;;;;;;;;;;;;;4960383;28;8543;-85
2022/07/08 17:01:02;;;;;;;;;;;;;;;;;;4958614;28;7169;-85